Time;durP1;ratioP1;P1;durP2;ratioP2;P2;SDS_P1;SDS_P2;PMS_P1;PMS_P2;Temp;Humidity;BMP_temperature;BMP_pressure;BME280_temperature;BME280_humidity;BME280_pressure;Samples;Min_cycle;Max_cycle;Signal;HPM_P1;HPM_P2
2022/09/13 00:01:04;;;;;;;8.20;6.82;;;;;;;26.40;44.13;101047.72;5095116;28;20046;-80
2022/09/13 00:03:29;;;;;;;12.52;7.13;;;;;;;25.97;45.03;101028.41;5095148;28;20058;-78
2022/09/13 00:05:55;;;;;;;11.80;6.80;;;;;;;26.28;44.62;101008.97;5095306;28;20036;-77
2022/09/13 00:08:21;;;;;;;10.13;6.75;;;;;;;26.30;44.63;101006.69;5095340;28;20040;-78
2022/09/13 00:10:46;;;;;;;13.68;7.45;;;;;;;26.29;45.21;101009.78;5095885;28;20036;-78
2022/09/13 00:13:13;;;;;;;11.88;6.53;;;;;;;26.37;44.91;101008.97;5094381;28;20048;-78
2022/09/13 00:15:45;;;;;;;10.20;8.05;;;;;;;26.27;44.84;101023.09;5088293;28;20119;-77
2022/09/13 00:18:10;;;;;;;13.02;8.38;;;;;;;25.99;45.55;101028.88;5074121;28;20031;-77
2022/09/13 00:20:36;;;;;;;15.75;9.25;;;;;;;25.81;45.97;101034.69;5074001;28;20116;-78
2022/09/13 00:23:01;;;;;;;12.93;9.05;;;;;;;25.86;45.75;101040.06;5073908;28;20155;-77
2022/09/13 00:25:27;;;;;;;11.13;10.02;;;;;;;25.87;46.10;101036.16;5074153;28;20037;-78
2022/09/13 00:27:52;;;;;;;15.60;8.63;;;;;;;25.98;46.03;101030.00;5073932;28;20106;-77
2022/09/13 00:30:17;;;;;;;11.55;9.20;;;;;;;26.02;45.81;101032.94;5073989;28;20424;-77
2022/09/13 00:32:43;;;;;;;13.73;11.48;;;;;;;25.87;47.02;101020.44;5088372;28;20036;-78
2022/09/13 00:35:08;;;;;;;12.90;11.45;;;;;;;26.07;46.84;101008.84;5093942;28;20069;-77
2022/09/13 00:37:34;;;;;;;19.00;12.93;;;;;;;26.01;46.86;101009.28;5094783;28;20064;-77
2022/09/13 00:40:02;;;;;;;17.73;13.88;;;;;;;25.70;48.48;101011.38;5094093;28;20081;-79
2022/09/13 00:42:31;;;;;;;20.65;14.57;;;;;;;26.00;48.04;101018.69;5094105;28;20446;-77
2022/09/13 00:45:11;;;;;;;16.85;13.50;;;;;;;25.71;49.58;101027.56;5093804;28;20051;-77
2022/09/13 00:47:48;;;;;;;20.95;15.75;;;;;;;25.86;49.19;101010.59;5093738;28;20044;-77
2022/09/13 00:50:28;;;;;;;23.35;17.02;;;;;;;25.91;49.64;101001.34;5093654;28;20024;-75
2022/09/13 00:53:15;;;;;;;18.58;15.15;;;;;;;26.03;49.04;100998.75;5094026;28;20024;-77
2022/09/13 00:55:54;;;;;;;22.45;17.17;;;;;;;26.07;48.68;101000.56;5094079;28;20471;-77
2022/09/13 00:58:24;;;;;;;25.35;18.05;;;;;;;26.00;49.74;101000.19;5075545;28;20047;-79
2022/09/13 01:00:51;;;;;;;23.90;18.83;;;;;;;25.85;49.98;101000.69;5093118;28;20057;-76
2022/09/13 01:03:19;;;;;;;24.52;18.20;;;;;;;25.69;50.85;100996.78;5093428;28;20047;-79
2022/09/13 01:05:53;;;;;;;29.48;18.92;;;;;;;25.82;50.36;100990.34;5093200;28;20036;-80
2022/09/13 01:08:21;;;;;;;27.45;18.90;;;;;;;25.86;50.53;100990.50;5093300;28;20024;-76
2022/09/13 01:10:49;;;;;;;25.55;19.08;;;;;;;25.83;50.66;100994.69;5093161;28;20036;-77
2022/09/13 01:13:32;;;;;;;24.58;19.00;;;;;;;25.86;50.62;100998.75;5093752;28;20036;-78
2022/09/13 01:15:59;;;;;;;27.30;19.25;;;;;;;25.75;51.00;100992.75;5092658;28;20032;-77
2022/09/13 01:18:25;;;;;;;25.92;18.98;;;;;;;25.73;51.13;100994.22;5092967;28;20036;-78
2022/09/13 01:21:44;;;;;;;27.70;19.60;;;;;;;25.69;51.18;100996.00;5092806;28;20047;-78
2022/09/13 01:24:43;;;;;;;25.45;19.92;;;;;;;25.66;51.47;100991.94;4990729;28;20474;-78
2022/09/13 01:27:21;;;;;;;26.73;18.23;;;;;;;25.58;51.08;100989.16;4990495;28;20181;-78
2022/09/13 01:29:55;;;;;;;25.70;18.98;;;;;;;25.56;50.88;100988.66;4990697;28;20133;-76
2022/09/13 01:32:37;;;;;;;24.92;19.90;;;;;;;25.50;51.60;100988.00;4979399;28;20069;-76
2022/09/13 01:35:40;;;;;;;27.98;20.80;;;;;;;25.57;51.30;100991.09;4971225;28;20443;-78
2022/09/13 01:38:09;;;;;;;29.33;19.35;;;;;;;25.61;51.36;100977.53;4971248;28;20059;-77
2022/09/13 01:40:49;;;;;;;26.75;20.75;;;;;;;25.62;51.56;100979.13;4971872;28;20058;-77
2022/09/13 01:43:18;;;;;;;;;;;;;;;25.65;51.39;100984.00;4980163;28;20050;-78
2022/09/13 01:46:01;;;;;;;30.80;19.35;;;;;;;25.60;52.15;100978.63;4974147;28;19953;-77
2022/09/13 01:48:53;;;;;;;27.52;18.88;;;;;;;25.69;51.54;100973.97;4990511;28;20581;-78
2022/09/13 01:51:37;;;;;;;25.65;19.77;;;;;;;25.75;51.34;100969.94;4990355;28;20050;-77
2022/09/13 01:54:22;;;;;;;30.60;20.30;;;;;;;25.84;51.65;100968.78;4990489;28;20042;-79
2022/09/13 01:57:05;;;;;;;26.92;19.00;;;;;;;25.79;51.43;100959.84;4995998;28;20052;-77
2022/09/13 01:59:50;;;;;;;30.40;20.17;;;;;;;25.81;51.17;100960.34;5092603;28;20040;-77
2022/09/13 02:02:27;;;;;;;25.85;19.63;;;;;;;25.76;51.77;100957.78;5092255;28;20076;-77
2022/09/13 02:04:58;;;;;;;28.98;19.40;;;;;;;25.79;51.16;100959.84;5073693;28;20173;-77
2022/09/13 02:07:32;;;;;;;26.50;19.33;;;;;;;25.70;51.74;100954.38;5092668;28;20540;-78
2022/09/13 02:10:04;;;;;;;32.80;21.25;;;;;;;25.80;51.37;100965.06;5079291;28;20032;-77
2022/09/13 02:12:33;;;;;;;27.08;20.20;;;;;;;25.81;51.38;100961.16;5071605;28;20024;-78
2022/09/13 02:15:09;;;;;;;28.45;19.60;;;;;;;25.76;51.65;100968.78;5071686;28;20040;-76
2022/09/13 02:17:38;;;;;;;27.13;19.55;;;;;;;25.77;51.65;100964.88;5092030;28;20036;-78
2022/09/13 02:20:12;;;;;;;27.10;21.25;;;;;;;25.90;51.35;100963.94;5091425;28;20040;-77
2022/09/13 02:22:45;;;;;;;29.13;19.85;;;;;;;25.72;51.87;100971.38;5092633;28;20050;-77
2022/09/13 02:25:14;;;;;;;27.48;21.45;;;;;;;25.73;52.10;100966.69;5076969;28;20112;-79
2022/09/13 02:27:45;;;;;;;27.45;21.10;;;;;;;25.73;51.74;100972.97;5071520;28;20280;-78
2022/09/13 02:30:13;;;;;;;28.45;20.50;;;;;;;25.82;51.58;100960.03;5071332;28;20043;-79
2022/09/13 02:32:48;;;;;;;28.65;20.92;;;;;;;25.82;51.35;100959.22;5085627;28;20210;-76
2022/09/13 02:35:23;;;;;;;26.35;20.35;;;;;;;25.76;51.47;100960.53;5091426;28;20032;-76
2022/09/13 02:38:05;;;;;;;29.27;19.88;;;;;;;25.62;52.19;100965.38;5092004;28;20032;-77
2022/09/13 02:40:39;;;;;;;26.35;18.60;;;;;;;25.57;51.77;100968.28;5091910;28;20576;-79
2022/09/13 02:43:12;;;;;;;25.70;19.60;;;;;;;25.67;51.76;100971.50;5091498;28;20047;-77
2022/09/13 02:46:17;;;;;;;22.90;18.15;;;;;;;25.67;51.58;100968.75;5091406;28;20465;-76
2022/09/13 02:49:01;;;;;;;24.38;18.58;;;;;;;25.74;51.67;100977.38;5091377;28;20044;-76
2022/09/13 02:51:51;;;;;;;26.33;18.67;;;;;;;25.68;51.48;100975.09;5091095;28;20390;-77
2022/09/13 02:54:31;;;;;;;20.95;16.40;;;;;;;25.84;51.07;100976.22;5091064;28;20036;-78
2022/09/13 02:57:05;;;;;;;24.17;17.63;;;;;;;25.87;51.45;100978.31;5091367;28;20032;-76
2022/09/13 02:59:31;;;;;;;21.23;16.73;;;;;;;25.84;51.47;100970.72;5072840;28;20043;-77
2022/09/13 03:02:07;;;;;;;21.17;17.45;;;;;;;25.84;51.43;100976.22;5072584;28;20510;-78
2022/09/13 03:04:33;;;;;;;23.67;16.75;;;;;;;25.84;51.17;100976.22;5091498;28;20387;-77
2022/09/13 03:06:59;;;;;;;21.08;16.25;;;;;;;25.86;51.81;100973.97;5091064;28;20499;-77
2022/09/13 03:09:26;;;;;;;22.38;16.48;;;;;;;25.81;51.52;100971.38;5091208;28;20036;-76
2022/09/13 03:12:28;;;;;;;21.48;16.08;;;;;;;25.81;51.45;100966.66;5091049;28;20051;-78
2022/09/13 03:15:13;;;;;;;24.35;14.55;;;;;;;25.84;51.49;100967.97;5090892;28;20040;-77
2022/09/13 03:17:41;;;;;;;22.85;15.60;;;;;;;25.87;51.47;100967.31;5070810;28;20047;-77
2022/09/13 03:20:11;;;;;;;22.20;15.15;;;;;;;25.85;51.51;100966.81;5070708;28;20508;-76
2022/09/13 03:23:08;;;;;;;24.23;14.45;;;;;;;25.85;51.55;100955.81;5071115;28;20522;-78
2022/09/13 03:25:54;;;;;;;17.95;13.25;;;;;;;25.78;51.71;100958.25;5070839;28;20051;-78
2022/09/13 03:28:39;;;;;;;21.98;15.10;;;;;;;25.79;51.39;100957.09;5070463;28;20061;-77
2022/09/13 03:31:19;;;;;;;18.60;14.25;;;;;;;25.79;51.53;100965.38;5070998;28;20044;-78
2022/09/13 03:34:02;;;;;;;22.65;15.23;;;;;;;25.79;51.31;100962.63;5093666;28;20046;-78
2022/09/13 03:36:44;;;;;;;18.25;13.68;;;;;;;25.82;51.11;100967.50;5094532;28;20044;-78
2022/09/13 03:39:35;;;;;;;19.70;14.40;;;;;;;25.72;51.57;100960.38;5094284;28;20044;-77
2022/09/13 03:42:04;;;;;;;;;;;;;;;25.71;51.65;100957.94;5095245;28;20113;-77
2022/09/13 03:44:31;;;;;;;22.08;13.38;;;;;;;25.63;51.61;100970.53;5094337;28;19970;-77
2022/09/13 03:47:01;;;;;;;22.70;15.65;;;;;;;25.62;51.97;100963.44;5093840;28;20036;-77
2022/09/13 03:49:27;;;;;;;17.83;14.13;;;;;;;25.56;51.91;100952.88;5094841;28;20032;-78
2022/09/13 03:51:54;;;;;;;17.85;13.00;;;;;;;25.52;51.93;100958.22;5094337;28;20059;-77
2022/09/13 03:54:28;;;;;;;17.40;13.32;;;;;;;25.44;52.25;100960.97;5094121;28;20404;-78
2022/09/13 03:57:14;;;;;;;21.20;14.40;;;;;;;25.43;52.22;100960.16;5094562;28;20051;-76
2022/09/13 03:59:45;;;;;;;18.73;14.15;;;;;;;25.43;52.11;100951.91;5093980;28;20043;-77
2022/09/13 04:02:11;;;;;;;19.27;14.48;;;;;;;25.34;52.73;100950.22;5091534;28;20039;-77
2022/09/13 04:04:41;;;;;;;19.45;14.25;;;;;;;25.34;52.26;100963.97;5093722;28;20040;-77
2022/09/13 04:07:08;;;;;;;17.73;13.70;;;;;;;25.33;52.58;100956.88;5090657;28;20123;-77
2022/09/13 04:09:33;;;;;;;18.52;13.88;;;;;;;25.29;52.57;100962.22;5093633;28;20422;-76
2022/09/13 04:11:59;;;;;;;17.27;13.90;;;;;;;25.24;52.52;100967.84;5093635;28;20082;-76
2022/09/13 04:14:27;;;;;;;17.83;14.55;;;;;;;25.17;52.75;100973.00;5093195;28;20063;-76
2022/09/13 04:16:54;;;;;;;22.02;15.20;;;;;;;25.10;53.00;100965.22;5093681;28;20032;-77
2022/09/13 04:19:20;;;;;;;20.85;16.00;;;;;;;25.13;52.69;100964.59;5094584;28;20039;-77
2022/09/13 04:21:48;;;;;;;20.25;14.98;;;;;;;25.15;52.73;100961.53;5093722;28;20061;-77
2022/09/13 04:24:14;;;;;;;24.52;16.02;;;;;;;25.25;52.05;100969.47;5088478;28;20447;-77
2022/09/13 04:26:39;;;;;;;16.77;14.23;;;;;;;25.29;51.77;100975.97;5073810;28;20036;-77
2022/09/13 04:29:04;;;;;;;21.33;14.85;;;;;;;25.28;51.64;100975.16;5073117;28;20098;-77
2022/09/13 04:31:30;;;;;;;21.65;14.23;;;;;;;25.33;51.82;100973.38;5077943;28;20579;-77
2022/09/13 04:33:55;;;;;;;18.02;14.13;;;;;;;25.23;52.58;100969.81;5093641;28;20032;-77
2022/09/13 04:36:21;;;;;;;22.63;14.30;;;;;;;25.18;52.53;100966.38;5093876;28;20032;-77
2022/09/13 04:38:47;;;;;;;18.75;15.02;;;;;;;25.22;52.57;100970.91;5093901;28;20039;-78
2022/09/13 04:41:12;;;;;;;16.38;14.57;;;;;;;25.25;53.08;100969.47;5093379;28;20036;-78
2022/09/13 04:43:38;;;;;;;23.27;14.63;;;;;;;25.34;52.15;100967.53;5083185;28;20028;-77
2022/09/13 04:46:03;;;;;;;19.75;14.05;;;;;;;25.30;52.36;100968.53;5081195;28;20044;-77
2022/09/13 04:48:28;;;;;;;19.75;15.23;;;;;;;25.26;52.50;100965.59;5082927;28;20097;-78
2022/09/13 04:51:00;;;;;;;26.70;15.55;;;;;;;25.24;52.66;100971.41;5081989;28;20032;-78
2022/09/13 04:53:25;;;;;;;19.70;14.20;;;;;;;25.24;52.87;100978.84;5081446;28;20039;-77
2022/09/13 04:55:51;;;;;;;20.10;14.23;;;;;;;25.20;52.80;100964.94;5085996;28;20078;-77
2022/09/13 04:58:17;;;;;;;21.15;14.68;;;;;;;25.17;52.29;100975.75;5084291;28;20085;-76
2022/09/13 05:01:15;;;;;;;18.40;14.45;;;;;;;25.14;52.90;100970.88;5081810;28;20035;-77
2022/09/13 05:03:40;;;;;;;18.20;15.13;;;;;;;25.10;52.79;100973.47;4980467;28;20039;-77
2022/09/13 05:06:16;;;;;;;18.80;13.82;;;;;;;25.14;52.72;100981.88;4979643;28;20510;-77
2022/09/13 05:08:43;;;;;;;26.17;16.10;;;;;;;25.16;52.90;100974.13;4989345;28;20061;-77
2022/09/13 05:11:08;;;;;;;18.27;14.30;;;;;;;25.15;52.94;100972.53;4990776;28;20046;-78
2022/09/13 05:13:34;;;;;;;23.08;15.02;;;;;;;25.08;53.22;100983.19;4991369;28;20469;-79
2022/09/13 05:16:04;;;;;;;17.55;14.82;;;;;;;25.05;52.51;100978.31;4990579;28;20574;-78
2022/09/13 05:18:31;;;;;;;;;;;;;;;24.99;53.35;100977.66;4991410;28;20597;-78
2022/09/13 05:20:58;;;;;;;22.90;16.05;;;;;;;25.08;53.52;100985.94;4986861;28;20366;-77
2022/09/13 05:23:26;;;;;;;27.10;15.57;;;;;;;25.09;53.45;100987.53;4982042;28;20117;-78
2022/09/13 05:25:56;;;;;;;30.67;16.70;;;;;;;25.01;53.51;100989.13;4981830;28;20042;-80
2022/09/13 05:28:22;;;;;;;31.47;16.97;;;;;;;25.18;53.30;100985.63;4984693;28;20085;-77
2022/09/13 05:31:15;;;;;;;22.70;16.65;;;;;;;25.24;53.02;100974.16;4981171;28;20244;-78
2022/09/13 05:33:40;;;;;;;21.63;16.02;;;;;;;25.25;53.26;100986.00;4982228;28;20033;-77
2022/09/13 05:36:06;;;;;;;23.00;16.92;;;;;;;25.26;53.48;100993.91;4981918;28;20031;-77
2022/09/13 05:38:32;;;;;;;23.45;16.95;;;;;;;25.30;53.45;100998.78;5025685;28;20124;-79
2022/09/13 05:41:00;;;;;;;27.02;17.30;;;;;;;25.28;53.73;100996.34;5093855;28;20032;-78
2022/09/13 05:43:28;;;;;;;30.42;16.95;;;;;;;25.12;54.41;100993.22;5094240;28;20086;-77
2022/09/13 05:46:20;;;;;;;25.13;17.40;;;;;;;25.09;54.96;100993.88;5093758;28;20036;-78
2022/09/13 05:48:47;;;;;;;21.58;16.42;;;;;;;25.25;54.79;100995.06;5070866;28;20547;-78
2022/09/13 05:51:17;;;;;;;25.63;16.73;;;;;;;25.27;54.82;101001.06;5076526;28;20032;-78
2022/09/13 05:53:44;;;;;;;;;;;;;;;25.28;55.26;101002.66;5089344;28;20033;-77
2022/09/13 05:56:12;;;;;;;23.55;16.15;;;;;;;25.24;55.17;101000.84;5075674;28;20411;-78
2022/09/13 05:58:40;;;;;;;32.90;16.73;;;;;;;25.30;55.18;101007.06;5093713;28;20040;-76
2022/09/13 06:01:06;;;;;;;25.25;16.98;;;;;;;25.17;55.66;101003.28;5093138;28;20074;-76
2022/09/13 06:03:31;;;;;;;26.25;15.10;;;;;;;25.12;55.95;101008.91;5093071;28;20032;-79
2022/09/13 06:05:57;;;;;;;25.90;17.05;;;;;;;25.37;55.50;101012.88;5084952;28;20085;-76
2022/09/13 06:08:28;;;;;;;23.05;17.33;;;;;;;25.58;55.02;101014.75;5084047;28;20036;-77
2022/09/13 06:10:58;;;;;;;27.95;17.67;;;;;;;24.57;58.66;101035.91;5076330;28;20167;-78
2022/09/13 06:13:24;;;;;;;27.73;18.70;;;;;;;24.88;57.35;101027.75;5074064;28;20034;-78
2022/09/13 06:15:50;;;;;;;23.20;17.42;;;;;;;24.48;59.08;101035.06;5074181;28;20086;-77
2022/09/13 06:18:16;;;;;;;32.30;19.75;;;;;;;24.48;58.98;101037.81;5073795;28;20488;-78
2022/09/13 06:20:42;;;;;;;28.83;19.15;;;;;;;24.66;58.17;101042.31;5076940;28;20036;-77
2022/09/13 06:23:07;;;;;;;26.70;18.30;;;;;;;24.59;58.67;101044.66;5070184;28;20587;-77
2022/09/13 06:25:33;;;;;;;29.58;18.02;;;;;;;24.61;59.02;101044.38;5072691;28;20016;-77
2022/09/13 06:27:58;;;;;;;24.25;15.95;;;;;;;24.86;57.94;101039.06;5075297;28;20060;-78
2022/09/13 06:30:23;;;;;;;23.95;15.68;;;;;;;24.90;57.71;101047.47;5071495;28;20036;-75
2022/09/13 06:32:49;;;;;;;21.08;14.75;;;;;;;25.00;56.99;101047.22;5072045;28;20036;-78
2022/09/13 06:35:15;;;;;;;24.52;14.10;;;;;;;25.25;56.62;101041.81;5079654;28;20101;-79
2022/09/13 06:37:40;;;;;;;20.35;14.15;;;;;;;25.47;55.57;101049.22;5081775;28;20468;-78
2022/09/13 06:40:06;;;;;;;20.13;11.35;;;;;;;25.10;56.87;101047.72;5078979;28;20049;-77
2022/09/13 06:42:35;;;;;;;20.67;11.90;;;;;;;25.16;56.86;101048.41;5078658;28;20035;-76
2022/09/13 06:45:01;;;;;;;18.45;11.15;;;;;;;25.14;56.61;101042.41;5080431;28;20115;-76
2022/09/13 06:47:27;;;;;;;13.43;7.15;;;;;;;25.07;56.76;101053.06;5071462;28;20119;-77
2022/09/13 06:49:52;;;;;;;12.60;6.95;;;;;;;25.15;56.37;101049.53;5076002;28;20476;-79
2022/09/13 06:52:17;;;;;;;13.90;6.78;;;;;;;25.41;55.24;101044.16;5083211;28;20028;-77
2022/09/13 06:54:43;;;;;;;13.93;7.40;;;;;;;25.61;54.87;101043.59;5081767;28;20086;-77
2022/09/13 06:57:08;;;;;;;10.25;4.13;;;;;;;25.84;53.99;101045.06;5063295;28;20055;-78
2022/09/13 06:59:34;;;;;;;10.35;3.17;;;;;;;25.49;54.50;101046.97;5082111;28;20041;-78
2022/09/13 07:01:59;;;;;;;11.20;2.70;;;;;;;25.37;54.76;101043.16;5084242;28;20553;-79
2022/09/13 07:04:30;;;;;;;8.23;1.85;;;;;;;25.29;54.25;101050.25;5072707;28;20031;-77
2022/09/13 07:06:55;;;;;;;;;;;;;;;25.35;54.15;101048.97;5081872;28;20048;-78
2022/09/13 07:09:21;;;;;;;3.95;1.45;;;;;;;25.46;53.97;101044.00;5083474;28;19973;-78
2022/09/13 07:11:48;;;;;;;4.85;1.20;;;;;;;25.86;53.17;101054.66;5084658;28;20047;-76
2022/09/13 07:14:20;;;;;;;8.73;1.85;;;;;;;25.90;52.98;101047.38;5085016;28;20029;-79
2022/09/13 07:16:45;;;;;;;5.78;1.17;;;;;;;26.00;52.65;101051.75;5089842;28;20062;-76
2022/09/13 07:19:22;;;;;;;5.45;1.67;;;;;;;26.07;52.32;101044.66;5086377;28;20056;-78
2022/09/13 07:21:49;;;;;;;4.68;1.00;;;;;;;25.46;53.58;101047.56;5079248;28;20048;-78
2022/09/13 07:24:16;;;;;;;2.13;1.17;;;;;;;25.70;53.11;101036.97;5085647;28;20028;-77
2022/09/13 07:26:41;;;;;;;7.47;1.27;;;;;;;25.41;53.82;101038.66;5083490;28;20135;-79
2022/09/13 07:29:10;;;;;;;5.28;1.13;;;;;;;25.88;52.60;101049.63;5093963;28;20259;-76
2022/09/13 07:31:40;;;;;;;7.72;1.65;;;;;;;25.81;53.00;101045.72;5092202;28;20024;-79
2022/09/13 07:34:10;;;;;;;4.28;0.93;;;;;;;25.43;54.02;101053.75;5089906;28;20146;-76
2022/09/13 07:36:37;;;;;;;1.08;0.70;;;;;;;25.54;53.75;101055.06;5079217;28;20086;-76
2022/09/13 07:39:04;;;;;;;2.70;0.95;;;;;;;25.90;52.86;101050.13;5073505;28;20432;-77
2022/09/13 07:41:31;;;;;;;3.95;1.20;;;;;;;25.87;52.68;101058.19;5084533;28;20085;-77
2022/09/13 07:43:59;;;;;;;4.45;1.23;;;;;;;25.78;53.18;101060.94;5083523;28;20035;-76
2022/09/13 07:46:27;;;;;;;4.07;1.13;;;;;;;26.07;52.42;101054.84;5080752;28;20043;-78
2022/09/13 07:48:55;;;;;;;5.07;1.38;;;;;;;25.90;52.23;101055.63;5090192;28;20048;-75
2022/09/13 07:51:23;;;;;;;3.63;1.10;;;;;;;25.63;52.56;101053.13;5082302;28;20032;-76
2022/09/13 07:53:50;;;;;;;6.38;1.35;;;;;;;26.19;51.25;101060.53;5080083;28;20044;-79
2022/09/13 07:56:18;;;;;;;4.47;1.85;;;;;;;26.39;50.93;101065.41;5084777;28;20043;-76
2022/09/13 07:58:46;;;;;;;3.40;1.13;;;;;;;26.61;50.10;101056.13;5074874;28;20110;-76
2022/09/13 08:01:11;;;;;;;3.53;1.10;;;;;;;25.87;51.78;101053.50;5083145;28;20040;-78
2022/09/13 08:03:37;;;;;;;4.13;1.20;;;;;;;26.09;51.24;101066.34;5090362;28;20115;-78
2022/09/13 08:06:04;;;;;;;4.50;1.10;;;;;;;26.16;51.11;101069.47;5085780;28;20576;-79
2022/09/13 08:08:31;;;;;;;4.97;1.50;;;;;;;25.62;52.81;101069.97;5080947;28;20526;-77
2022/09/13 08:10:57;;;;;;;3.40;1.17;;;;;;;25.77;52.66;101062.06;5074602;28;20500;-78
2022/09/13 08:13:22;;;;;;;2.65;1.02;;;;;;;26.42;50.44;101058.41;5084720;28;20044;-77
2022/09/13 08:15:48;;;;;;;4.55;0.77;;;;;;;26.37;50.58;101067.66;5073846;28;20207;-79
2022/09/13 08:18:15;;;;;;;2.50;0.90;;;;;;;26.55;50.51;101077.56;5067522;28;20043;-77
2022/09/13 08:20:40;;;;;;;5.95;1.33;;;;;;;26.23;50.34;101079.97;5065429;28;20131;-76
2022/09/13 08:23:06;;;;;;;2.97;1.05;;;;;;;26.48;50.35;101081.91;5080288;28;20032;-77
2022/09/13 08:25:33;;;;;;;5.15;0.73;;;;;;;26.30;50.05;101081.09;5084298;28;20032;-78
2022/09/13 08:28:00;;;;;;;3.08;0.70;;;;;;;26.45;49.60;101091.66;5080979;28;20059;-77
2022/09/13 08:30:31;;;;;;;4.60;0.93;;;;;;;26.23;50.82;101097.31;5082275;28;20040;-78
2022/09/13 08:33:01;;;;;;;4.72;0.93;;;;;;;25.82;50.73;101102.41;5083256;28;20028;-76
2022/09/13 08:35:28;;;;;;;5.10;0.80;;;;;;;25.58;51.33;101100.09;5080858;28;20584;-77
2022/09/13 08:37:53;;;;;;;5.97;1.15;;;;;;;26.22;50.02;101097.66;5081502;28;20036;-78
2022/09/13 08:40:21;;;;;;;5.38;1.00;;;;;;;26.41;49.61;101089.88;5081412;28;20051;-77
2022/09/13 08:42:55;;;;;;;5.45;0.95;;;;;;;26.72;49.08;101094.09;5082263;28;20074;-78
2022/09/13 08:45:22;;;;;;;3.95;0.88;;;;;;;26.30;49.95;101094.09;5081802;28;20048;-77
2022/09/13 08:47:55;;;;;;;3.40;0.90;;;;;;;26.54;49.23;101097.97;5080151;28;20181;-78
2022/09/13 08:50:25;;;;;;;5.30;0.85;;;;;;;26.79;48.49;101093.59;5081935;28;20040;-76
2022/09/13 08:53:24;;;;;;;6.73;0.87;;;;;;;26.76;48.70;101092.31;5083896;28;20036;-77
2022/09/13 08:56:09;;;;;;;3.63;0.63;;;;;;;26.83;48.16;101100.06;5082891;28;20031;-77
2022/09/13 08:58:57;;;;;;;5.93;1.05;;;;;;;26.69;48.55;101086.44;5083331;28;20048;-78
2022/09/13 09:01:28;;;;;;;5.53;0.90;;;;;;;27.10;47.30;101085.91;5083317;28;20040;-76
2022/09/13 09:03:59;;;;;;;5.88;1.25;;;;;;;26.62;48.55;101082.53;5079071;28;20040;-77
2022/09/13 09:06:25;;;;;;;6.45;0.80;;;;;;;26.64;48.69;101083.84;5079253;28;20572;-78
2022/09/13 09:09:01;;;;;;;2.78;1.00;;;;;;;26.91;48.15;101085.44;5082083;28;20032;-78
2022/09/13 09:11:35;;;;;;;6.72;0.98;;;;;;;27.33;47.34;101086.47;5081267;28;20040;-76
2022/09/13 09:14:13;;;;;;;3.38;1.00;;;;;;;27.02;46.99;101088.66;5081305;28;20123;-76
2022/09/13 09:16:44;;;;;;;4.55;0.77;;;;;;;27.08;47.98;101076.31;5082606;28;20111;-79
2022/09/13 09:19:13;;;;;;;5.00;0.85;;;;;;;27.08;47.19;101081.84;5083374;28;20061;-76
2022/09/13 09:21:39;;;;;;;3.47;0.70;;;;;;;27.40;47.50;101079.28;5081632;28;20047;-77
2022/09/13 09:24:06;;;;;;;6.50;1.05;;;;;;;27.61;46.59;101087.66;5081366;28;20039;-77
2022/09/13 09:26:31;;;;;;;7.22;1.13;;;;;;;27.30;46.68;101084.38;5082438;28;20102;-78
2022/09/13 09:29:01;;;;;;;5.97;0.98;;;;;;;27.16;47.13;101089.28;5076906;28;20032;-76
2022/09/13 09:32:07;;;;;;;11.75;0.80;;;;;;;26.54;48.16;101091.63;5080271;28;20119;-78
2022/09/13 09:35:12;;;;;;;4.50;0.65;;;;;;;26.91;47.37;101088.19;5080182;28;20362;-77
2022/09/13 09:37:40;;;;;;;3.30;0.80;;;;;;;27.04;45.82;101087.22;5082484;28;20492;-78
2022/09/13 09:40:11;;;;;;;4.07;0.80;;;;;;;27.17;45.67;101082.59;5076366;28;20028;-76
2022/09/13 09:42:49;;;;;;;1.45;0.43;;;;;;;27.30;44.42;101089.88;5084887;28;20406;-75
2022/09/13 09:45:30;;;;;;;4.50;0.98;;;;;;;27.04;45.84;101084.44;5092092;28;20036;-76
2022/09/13 09:48:01;;;;;;;8.93;1.02;;;;;;;27.17;44.68;101082.59;5092130;28;20393;-77
2022/09/13 09:50:31;;;;;;;7.28;0.75;;;;;;;26.64;46.20;101083.03;5091743;28;20109;-73
2022/09/13 09:52:57;;;;;;;;;;;;;;;26.62;45.72;101080.59;5074289;28;20021;-76
2022/09/13 09:55:25;;;;;;;7.07;0.85;;;;;;;26.64;46.60;101081.09;5071616;28;20541;-76
2022/09/13 09:57:50;;;;;;;4.68;0.60;;;;;;;26.63;46.14;101079.47;5071114;28;20113;-74
2022/09/13 10:00:17;;;;;;;3.58;1.10;;;;;;;26.93;45.00;101081.22;5083109;28;20504;-76
2022/09/13 10:02:43;;;;;;;2.35;0.70;;;;;;;27.98;42.86;101080.47;5058807;28;20457;-78
2022/09/13 10:05:09;;;;;;;4.35;0.70;;;;;;;28.15;43.14;101077.56;5071256;28;20040;-76
2022/09/13 10:07:35;;;;;;;2.58;0.45;;;;;;;27.36;41.32;101080.31;5088516;28;20044;-77
2022/09/13 10:10:23;;;;;;;2.53;0.50;;;;;;;26.57;43.30;101079.97;5082263;28;20067;-74
2022/09/13 10:12:55;;;;;;;4.18;0.82;;;;;;;27.19;42.05;101083.09;5082688;28;20100;-78
2022/09/13 10:15:25;;;;;;;3.85;0.68;;;;;;;27.70;42.57;101082.88;5076637;28;20044;-78
2022/09/13 10:18:03;;;;;;;6.18;0.70;;;;;;;27.43;41.34;101075.06;5060751;28;20043;-78
2022/09/13 10:20:30;;;;;;;1.27;0.40;;;;;;;27.47;42.33;101087.88;5079791;28;20165;-78
2022/09/13 10:23:18;;;;;;;5.40;0.65;;;;;;;26.95;44.12;101086.41;5079335;28;20040;-73
2022/09/13 10:25:54;;;;;;;5.80;0.90;;;;;;;27.01;44.23;101082.34;5066044;28;20042;-78
2022/09/13 10:28:21;;;;;;;5.22;0.80;;;;;;;27.21;43.41;101087.16;5080046;28;20101;-79
2022/09/13 10:31:00;;;;;;;7.30;0.90;;;;;;;27.32;43.42;101087.59;5087929;28;20044;-78
2022/09/13 10:33:31;;;;;;;3.33;0.73;;;;;;;27.64;43.07;101079.50;5081210;28;20040;-77
2022/09/13 10:36:10;;;;;;;4.55;0.70;;;;;;;27.21;43.23;101086.31;5090625;28;20036;-73
2022/09/13 10:38:40;;;;;;;6.00;0.70;;;;;;;26.95;42.15;101083.66;5083449;28;20044;-76
2022/09/13 10:41:10;;;;;;;3.17;0.52;;;;;;;27.43;41.29;101080.59;5081354;28;20135;-76
2022/09/13 10:43:36;;;;;;;4.88;0.57;;;;;;;28.46;39.02;101080.75;5076910;28;20037;-75
2022/09/13 10:46:04;;;;;;;6.18;0.98;;;;;;;28.47;39.90;101080.41;5076558;28;20081;-76
2022/09/13 10:48:42;;;;;;;3.97;0.60;;;;;;;27.48;42.04;101083.16;5078743;28;20036;-76
2022/09/13 10:51:28;;;;;;;3.35;0.40;;;;;;;27.61;41.82;101076.59;5077448;28;20071;-76
2022/09/13 10:54:21;;;;;;;6.72;1.20;;;;;;;27.90;40.84;101079.34;5077496;28;20036;-77
2022/09/13 10:56:51;;;;;;;5.53;0.73;;;;;;;27.49;41.43;101082.03;5074204;28;20115;-77
2022/09/13 10:59:26;;;;;;;8.05;1.02;;;;;;;27.54;42.08;101079.06;5073664;28;20446;-77
2022/09/13 11:02:12;;;;;;;4.72;0.93;;;;;;;27.59;40.86;101074.19;5075535;28;20158;-78
2022/09/13 11:05:00;;;;;;;5.60;1.20;;;;;;;27.64;40.99;101087.78;5085312;28;20032;-76
2022/09/13 11:07:40;;;;;;;3.75;0.57;;;;;;;27.40;40.88;101093.09;5081648;28;20463;-76
2022/09/13 11:10:18;;;;;;;4.60;0.82;;;;;;;27.57;40.37;101095.81;5085919;28;20032;-75
2022/09/13 11:13:20;;;;;;;6.50;0.70;;;;;;;28.21;39.70;101085.31;5073464;28;20045;-76
2022/09/13 11:15:51;;;;;;;4.55;0.70;;;;;;;27.83;40.96;101090.13;5073946;28;20036;-76
2022/09/13 11:18:50;;;;;;;4.97;0.65;;;;;;;27.41;40.50;101093.91;5080333;28;20107;-75
2022/09/13 11:21:32;;;;;;;2.17;0.55;;;;;;;28.22;38.67;101091.69;5072867;28;20048;-76
2022/09/13 11:24:21;;;;;;;3.35;0.70;;;;;;;28.33;38.12;101090.09;5079758;28;20303;-77
2022/09/13 11:27:25;;;;;;;3.35;0.73;;;;;;;27.29;40.01;101096.53;5070160;28;20069;-74
2022/09/13 11:30:14;;;;;;;4.95;0.70;;;;;;;28.00;39.41;101089.22;5072153;28;20137;-77
2022/09/13 11:33:14;;;;;;;1.98;0.40;;;;;;;27.19;40.30;101086.66;5075975;28;20055;-75
2022/09/13 11:35:48;;;;;;;4.80;0.98;;;;;;;27.93;38.91;101086.16;5070211;28;20071;-76
2022/09/13 11:38:39;;;;;;;2.95;0.60;;;;;;;27.59;39.27;101078.91;5073816;28;20055;-74
2022/09/13 11:41:27;;;;;;;5.50;0.90;;;;;;;27.94;39.82;101083.06;5083939;28;20479;-78